Flight Track Log - Related Links

Times and Time Zones

All times are in EDT time to prevent confusion due to time zone crossing. See the AWE1695 flight status page for this flight to view local times or setup timezone preferences in your user account.

Time Position Orientation Groundspeed Altitude Reporting Facility
EDT Latitude Longitude Course Direction KTS MPH feet Rate Location/Type
Wed 03:02:02 PM 35.1850 -80.9536 188° South 172 198 1,800  Level Atlanta Center
Wed 03:03:28 PM 35.1061 -80.9667 188° South 239 275 4,800 2,274 Climbing Atlanta Center
Wed 03:04:00 PM 34.8645 -81.0167 180° South  Level FlightAware Approximate
Wed 03:04:06 PM 35.0692 -80.9883 206° Southwest 265 305 6,500  Level Atlanta Center
Wed 03:05:00 PM 34.7407 -81.0410 190° South  Level FlightAware Approximate
Wed 03:05:06 PM 35.0008 -81.0164 199° South 275 316 8,000  Level Atlanta Center
Wed 03:06:00 PM 34.6310 -81.0839 192° South  Level FlightAware Approximate
Wed 03:06:06 PM 34.9172 -81.0042 173° South 295 339 10,500  Level Atlanta Center
Wed 03:07:00 PM 34.5074 -81.1099 188° South  Level FlightAware Approximate
Wed 03:07:06 PM 34.8311 -80.9844 169° South 311 358 12,800  Level Atlanta Center
Wed 03:09:17 PM 34.6322 -80.8967 160° South 354 407 17,300 2,010 Climbing Jacksonville Center
Wed 03:10:17 PM 34.5333 -80.8511 159° South 374 430 19,200 2,000 Climbing Jacksonville Center
Wed 03:11:17 PM 34.4294 -80.8786 192° South 366 421 21,300 2,000 Climbing Jacksonville Center
Wed 03:12:17 PM 34.3281 -80.9314 203° Southwest 384 442 23,200 1,700 Climbing Jacksonville Center
Wed 03:13:17 PM 34.2286 -80.9764 201° Southwest 393 452 24,700 1,150 Climbing Jacksonville Center
Wed 03:14:17 PM 34.1189 -81.0239 200° South 398 458 25,500 1,600 Climbing Jacksonville Center
Wed 03:15:17 PM 34.0047 -81.0714 199° South 422 486 27,900 1,600 Climbing Jacksonville Center
Wed 03:16:17 PM 33.8992 -81.1211 201° Southwest 427 491 28,700 1,050 Climbing Jacksonville Center
Wed 03:17:17 PM 33.7872 -81.1708 200° South 427 491 30,000 650 Climbing Jacksonville Center
Wed 03:18:17 PM 33.6856 -81.2203 202° Southwest 427 491 30,000 600 Level Jacksonville Center
Wed 03:19:17 PM 33.5756 -81.2672 200° South 427 491 31,200 1,300 Climbing Jacksonville Center
Wed 03:20:17 PM 33.4675 -81.3164 201° Southwest 427 491 32,600 1,150 Climbing Jacksonville Center
Wed 03:21:17 PM 33.3472 -81.3683 200° South 427 491 33,500 700 Climbing Jacksonville Center
Wed 03:22:17 PM 33.2414 -81.4100 198° South 420 483 34,000 200 Climbing Jacksonville Center
Wed 03:23:17 PM 33.1372 -81.4389 193° South 420 483 33,900  Descending Jacksonville Center
Wed 03:24:17 PM 33.0208 -81.4706 193° South 420 483 34,000 50 Climbing Jacksonville Center
Wed 03:25:17 PM 32.9042 -81.4972 191° South 425 489 34,000  Level Jacksonville Center
Wed 03:26:17 PM 32.7897 -81.5286 193° South 430 495 34,000  Level Jacksonville Center
Wed 03:27:17 PM 32.6669 -81.5625 193° South 423 487 34,000  Level Jacksonville Center
Wed 03:28:17 PM 32.5606 -81.5911 193° South 428 493 34,000  Level Jacksonville Center
Wed 03:29:17 PM 32.4272 -81.6153 189° South 445 512 34,000  Level Jacksonville Center
Wed 03:30:17 PM 32.3128 -81.6439 192° South 438 504 34,000  Level Jacksonville Center
Wed 03:31:17 PM 32.2006 -81.6847 197° South 425 489 34,000  Level Jacksonville Center
Wed 03:32:17 PM 32.0983 -81.7153 194° South 419 482 34,000  Level Jacksonville Center
Wed 03:33:17 PM 31.9672 -81.7514 193° South 430 495 34,000  Level Jacksonville Center
Wed 03:34:17 PM 31.8444 -81.7822 192° South 443 510 34,000  Level Jacksonville Center
Wed 03:35:17 PM 31.7256 -81.8081 190° South 443 510 34,000  Level Jacksonville Center
Wed 03:36:17 PM 31.6214 -81.8386 194° South 436 502 34,000  Level Jacksonville Center
Wed 03:37:17 PM 31.4944 -81.8864 198° South 431 496 34,000  Level Jacksonville Center
Wed 03:38:17 PM 31.3800 -81.9264 197° South 431 496 34,000  Level Jacksonville Center
Wed 03:39:17 PM 31.2653 -81.9714 199° South 437 503 34,000 -50 Level Jacksonville Center
Wed 03:40:17 PM 31.1550 -82.0283 204° Southwest 442 509 33,900  Descending Jacksonville Center
Wed 03:41:17 PM 31.0447 -82.0803 202° Southwest 437 503 34,000  Climbing Jacksonville Center
Wed 03:42:17 PM 30.9278 -82.0814 180° South 432 497 33,900 -50 Descending Jacksonville Center
Wed 03:43:17 PM 30.8211 -82.0433 163° South 419 482 33,900 50 Level Jacksonville Center
Wed 03:44:17 PM 30.7042 -82.0275 173° South 429 494 34,000 50 Climbing Jacksonville Center
Wed 03:45:17 PM 30.5853 -82.0358 183° South 429 494 34,000  Level Jacksonville Center
Wed 03:46:17 PM 30.4494 -82.0394 181° South 444 511 34,000  Level Jacksonville Center
Wed 03:47:17 PM 30.3264 -82.0528 185° South 444 511 34,000  Level Jacksonville Center
Wed 03:48:17 PM 30.2053 -82.0706 187° South 442 509 34,000  Level Jacksonville Center
Wed 03:49:17 PM 30.0800 -82.0619 177° South 442 509 34,000  Level Jacksonville Center
Wed 03:50:17 PM 29.9653 -82.0533 176° South 447 514 34,000 250 Level Jacksonville Center
Wed 03:51:17 PM 29.8397 -82.0378 174° South 447 514 34,500 -250 Climbing Jacksonville Center
Wed 03:52:17 PM 29.7186 -82.0197 173° South 447 514 33,500 -750 Descending Jacksonville Center
Wed 03:53:17 PM 29.5933 -82.0017 173° South 447 514 33,000 -250 Descending Jacksonville Center
Wed 03:54:17 PM 29.4719 -81.9886 175° South 447 514 33,000  Level Jacksonville Center
Wed 03:55:17 PM 29.3489 -81.9706 173° South 447 514 33,000  Level Jacksonville Center
Wed 03:56:17 PM 29.2150 -81.9386 168° South 447 514 33,000 -342 Level Jacksonville Center
Wed 03:58:30 PM 28.9406 -81.8839 170° South 451 519 31,900 -622 Descending Miami Center
Wed 03:59:30 PM 28.8206 -81.8619 171° South 446 513 31,000 -950 Descending Miami Center
Wed 04:00:30 PM 28.6919 -81.8372 170° South 446 513 30,000 -1,900 Descending Miami Center
Wed 04:01:30 PM 28.5678 -81.8128 170° South 451 519 27,200 -1,500 Descending Miami Center
Wed 04:02:30 PM 28.4478 -81.7789 166° South 451 519 27,000 -450 Descending Miami Center
Wed 04:03:30 PM 28.3239 -81.7431 166° South 451 519 26,300 -950 Descending Miami Center
Wed 04:04:30 PM 28.2022 -81.7069 165° South 451 519 25,100 -1,300 Descending Miami Center
Wed 04:05:30 PM 28.0800 -81.6736 166° South 451 519 23,700 -1,050 Descending Miami Center
Wed 04:06:30 PM 27.9711 -81.6853 185° South 438 504 23,000 -450 Descending Miami Center
Wed 04:07:30 PM 27.8483 -81.6825 179° South 438 504 22,800 -750 Descending Miami Center
Wed 04:08:30 PM 27.7197 -81.6558 170° South 433 498 21,500 -1,300 Descending Miami Center
Wed 04:09:30 PM 27.6183 -81.6283 166° South 427 491 20,200 -1,250 Descending Miami Center
Wed 04:10:30 PM 27.4983 -81.6022 169° South 415 478 19,000 -900 Descending Miami Center
Wed 04:11:30 PM 27.3906 -81.5744 167° South 405 466 18,400 -1,300 Descending Miami Center
Wed 04:12:30 PM 27.2953 -81.5494 167° South 399 459 16,400 -2,800 Descending Miami Center
Wed 04:13:30 PM 27.1964 -81.5153 163° South 389 448 12,800 -3,100 Descending Miami Center
Wed 04:14:30 PM 27.1083 -81.4603 151° Southeast 373 429 10,200 -1,400 Descending Miami Center
Wed 04:15:30 PM 27.0219 -81.4219 158° South 327 376 10,000 -150 Descending Miami Center
Wed 04:16:30 PM 26.9456 -81.3908 160° South 295 339 9,900 -750 Descending Miami Center
Wed 04:17:30 PM 26.8733 -81.3603 159° South 282 325 8,500 -1,450 Descending Miami Center
Wed 04:18:30 PM 26.7992 -81.3317 161° South 282 325 7,000 -1,250 Descending Miami Center
Wed 04:19:30 PM 26.7292 -81.3011 159° South 282 325 6,000 -1,100 Descending Miami Center
Wed 04:20:30 PM 26.6611 -81.2753 161° South 275 316 4,800 -1,250 Descending Miami Center
Wed 04:21:30 PM 26.5908 -81.2494 162° South 270 311 3,500 -900 Descending Miami Center
Wed 04:22:30 PM 26.5514 -81.3131 235° Southwest 219 252 3,000 -500 Descending Miami Center
Wed 04:24:00 PM 26.5440 -81.5337 197° South  Level Estimated
Wed 04:31:00 PM 26.5333 -81.7500 318° Northwest  Level FlightAware Approximate

Login

Don't have an account? Register now (free) for customized features, flight alerts, and more!